sensor_id;sensor_type;location;lat;lon;timestamp;pressure;altitude;pressure_sealevel;temperature;humidity
42591;BME280;28218;53.342;-6.216;2023-06-22T00:00:39;101791.66;;;19.36;100.00
42591;BME280;28218;53.342;-6.216;2023-06-22T00:03:09;101793.53;;;19.35;100.00
42591;BME280;28218;53.342;-6.216;2023-06-22T00:05:37;101793.31;;;19.37;100.00
42591;BME280;28218;53.342;-6.216;2023-06-22T00:08:06;101788.78;;;19.37;100.00
42591;BME280;28218;53.342;-6.216;2023-06-22T00:10:34;101790.03;;;19.35;100.00
42591;BME280;28218;53.342;-6.216;2023-06-22T00:13:03;101793.47;;;19.29;100.00
42591;BME280;28218;53.342;-6.216;2023-06-22T00:15:32;101790.81;;;19.29;100.00
42591;BME280;28218;53.342;-6.216;2023-06-22T00:18:01;101799.25;;;19.26;100.00
42591;BME280;28218;53.342;-6.216;2023-06-22T00:20:29;101802.94;;;19.25;100.00
42591;BME280;28218;53.342;-6.216;2023-06-22T00:23:00;101817.31;;;19.24;100.00
42591;BME280;28218;53.342;-6.216;2023-06-22T00:25:28;101819.34;;;19.22;100.00
42591;BME280;28218;53.342;-6.216;2023-06-22T00:27:56;101821.00;;;19.23;100.00
42591;BME280;28218;53.342;-6.216;2023-06-22T00:30:24;101822.66;;;19.24;100.00
42591;BME280;28218;53.342;-6.216;2023-06-22T00:32:55;101829.22;;;19.21;100.00
42591;BME280;28218;53.342;-6.216;2023-06-22T00:35:23;101836.81;;;19.18;100.00
42591;BME280;28218;53.342;-6.216;2023-06-22T00:37:55;101840.28;;;19.18;100.00
42591;BME280;28218;53.342;-6.216;2023-06-22T00:40:28;101842.53;;;19.14;100.00
42591;BME280;28218;53.342;-6.216;2023-06-22T00:42:57;101853.44;;;19.13;100.00
42591;BME280;28218;53.342;-6.216;2023-06-22T00:45:26;101853.19;;;19.08;100.00
42591;BME280;28218;53.342;-6.216;2023-06-22T00:47:57;101859.94;;;19.04;100.00
42591;BME280;28218;53.342;-6.216;2023-06-22T00:50:27;101862.00;;;19.02;100.00
42591;BME280;28218;53.342;-6.216;2023-06-22T00:53:03;101872.03;;;19.00;100.00
42591;BME280;28218;53.342;-6.216;2023-06-22T00:55:37;101872.63;;;18.95;100.00
42591;BME280;28218;53.342;-6.216;2023-06-22T00:58:06;101873.03;;;18.92;100.00
42591;BME280;28218;53.342;-6.216;2023-06-22T01:00:38;101874.03;;;18.91;100.00
42591;BME280;28218;53.342;-6.216;2023-06-22T01:03:08;101882.44;;;18.88;100.00
42591;BME280;28218;53.342;-6.216;2023-06-22T01:05:38;101879.53;;;18.83;100.00
42591;BME280;28218;53.342;-6.216;2023-06-22T01:08:21;101880.53;;;18.82;100.00
42591;BME280;28218;53.342;-6.216;2023-06-22T01:10:55;101885.47;;;18.78;100.00
42591;BME280;28218;53.342;-6.216;2023-06-22T01:13:29;101882.16;;;18.76;100.00
42591;BME280;28218;53.342;-6.216;2023-06-22T01:16:02;101883.38;;;18.74;100.00
42591;BME280;28218;53.342;-6.216;2023-06-22T01:18:35;101889.75;;;18.73;100.00
42591;BME280;28218;53.342;-6.216;2023-06-22T01:21:04;101889.91;;;18.71;100.00
42591;BME280;28218;53.342;-6.216;2023-06-22T01:23:51;101894.22;;;18.72;100.00
42591;BME280;28218;53.342;-6.216;2023-06-22T01:26:28;101896.47;;;18.69;100.00
42591;BME280;28218;53.342;-6.216;2023-06-22T01:29:01;101895.81;;;18.67;100.00
42591;BME280;28218;53.342;-6.216;2023-06-22T01:31:32;101891.25;;;18.60;100.00
42591;BME280;28218;53.342;-6.216;2023-06-22T01:34:05;101896.94;;;18.57;100.00
42591;BME280;28218;53.342;-6.216;2023-06-22T01:36:34;101894.84;;;18.53;100.00
42591;BME280;28218;53.342;-6.216;2023-06-22T01:39:04;101896.25;;;18.49;100.00
42591;BME280;28218;53.342;-6.216;2023-06-22T01:41:36;101906.69;;;18.44;100.00
42591;BME280;28218;53.342;-6.216;2023-06-22T01:44:07;101902.94;;;18.38;100.00
42591;BME280;28218;53.342;-6.216;2023-06-22T01:46:37;101901.28;;;18.37;100.00
42591;BME280;28218;53.342;-6.216;2023-06-22T01:49:07;101895.34;;;18.35;100.00
42591;BME280;28218;53.342;-6.216;2023-06-22T01:51:36;101897.81;;;18.36;100.00
42591;BME280;28218;53.342;-6.216;2023-06-22T01:54:05;101902.31;;;18.36;100.00
42591;BME280;28218;53.342;-6.216;2023-06-22T01:56:35;101894.31;;;18.36;100.00
42591;BME280;28218;53.342;-6.216;2023-06-22T01:59:11;101905.00;;;18.36;100.00
42591;BME280;28218;53.342;-6.216;2023-06-22T02:01:43;101898.00;;;18.35;100.00
42591;BME280;28218;53.342;-6.216;2023-06-22T02:04:16;101909.50;;;18.35;100.00
42591;BME280;28218;53.342;-6.216;2023-06-22T02:06:51;101910.69;;;18.33;100.00
42591;BME280;28218;53.342;-6.216;2023-06-22T02:09:23;101911.06;;;18.30;100.00
42591;BME280;28218;53.342;-6.216;2023-06-22T02:11:55;101910.25;;;18.29;100.00
42591;BME280;28218;53.342;-6.216;2023-06-22T02:14:26;101916.41;;;18.30;100.00
42591;BME280;28218;53.342;-6.216;2023-06-22T02:16:56;101920.50;;;18.26;100.00
42591;BME280;28218;53.342;-6.216;2023-06-22T02:19:27;101921.69;;;18.23;100.00
42591;BME280;28218;53.342;-6.216;2023-06-22T02:22:00;101919.22;;;18.22;100.00
42591;BME280;28218;53.342;-6.216;2023-06-22T02:24:28;101909.53;;;18.21;100.00
42591;BME280;28218;53.342;-6.216;2023-06-22T02:27:01;101915.88;;;18.20;100.00
42591;BME280;28218;53.342;-6.216;2023-06-22T02:29:31;101920.84;;;18.23;100.00
42591;BME280;28218;53.342;-6.216;2023-06-22T02:31:59;101920.84;;;18.23;100.00
42591;BME280;28218;53.342;-6.216;2023-06-22T02:34:28;101916.34;;;18.23;100.00
42591;BME280;28218;53.342;-6.216;2023-06-22T02:36:56;101922.69;;;18.22;100.00
42591;BME280;28218;53.342;-6.216;2023-06-22T02:39:29;101915.88;;;18.20;100.00
42591;BME280;28218;53.342;-6.216;2023-06-22T02:41:57;101911.13;;;18.15;100.00
42591;BME280;28218;53.342;-6.216;2023-06-22T02:44:25;101922.81;;;18.14;100.00
42591;BME280;28218;53.342;-6.216;2023-06-22T02:46:55;101916.66;;;18.13;100.00
42591;BME280;28218;53.342;-6.216;2023-06-22T02:49:24;101921.16;;;18.13;100.00
42591;BME280;28218;53.342;-6.216;2023-06-22T02:51:52;101930.34;;;18.10;100.00
42591;BME280;28218;53.342;-6.216;2023-06-22T02:54:21;101931.19;;;18.11;100.00
42591;BME280;28218;53.342;-6.216;2023-06-22T02:56:50;101928.72;;;18.09;100.00
42591;BME280;28218;53.342;-6.216;2023-06-22T02:59:18;101927.88;;;18.09;100.00
42591;BME280;28218;53.342;-6.216;2023-06-22T03:01:50;101922.34;;;18.10;100.00
42591;BME280;28218;53.342;-6.216;2023-06-22T03:04:20;101923.19;;;18.11;100.00
42591;BME280;28218;53.342;-6.216;2023-06-22T03:06:49;101918.69;;;18.11;100.00
42591;BME280;28218;53.342;-6.216;2023-06-22T03:09:18;101932.03;;;18.11;100.00
42591;BME280;28218;53.342;-6.216;2023-06-22T03:11:46;101933.03;;;18.10;100.00
42591;BME280;28218;53.342;-6.216;2023-06-22T03:14:14;101932.19;;;18.10;100.00
42591;BME280;28218;53.342;-6.216;2023-06-22T03:16:43;101933.22;;;18.09;100.00
42591;BME280;28218;53.342;-6.216;2023-06-22T03:19:11;101935.06;;;18.08;100.00
42591;BME280;28218;53.342;-6.216;2023-06-22T03:21:40;101931.38;;;18.09;100.00
42591;BME280;28218;53.342;-6.216;2023-06-22T03:24:09;101922.91;;;18.06;100.00
42591;BME280;28218;53.342;-6.216;2023-06-22T03:26:37;101922.66;;;18.01;100.00
42591;BME280;28218;53.342;-6.216;2023-06-22T03:29:05;101919.53;;;17.97;100.00
42591;BME280;28218;53.342;-6.216;2023-06-22T03:31:33;101925.25;;;17.94;100.00
42591;BME280;28218;53.342;-6.216;2023-06-22T03:34:02;101912.75;;;17.95;100.00
42591;BME280;28218;53.342;-6.216;2023-06-22T03:36:30;101917.06;;;17.96;100.00
42591;BME280;28218;53.342;-6.216;2023-06-22T03:39:00;101917.25;;;17.94;100.00
42591;BME280;28218;53.342;-6.216;2023-06-22T03:41:28;101912.28;;;17.91;100.00
42591;BME280;28218;53.342;-6.216;2023-06-22T03:43:56;101911.47;;;17.91;100.00
42591;BME280;28218;53.342;-6.216;2023-06-22T03:46:25;101918.84;;;17.88;100.00
42591;BME280;28218;53.342;-6.216;2023-06-22T03:48:53;101916.75;;;17.84;100.00
42591;BME280;28218;53.342;-6.216;2023-06-22T03:51:21;101913.41;;;17.82;100.00
42591;BME280;28218;53.342;-6.216;2023-06-22T03:53:50;101910.75;;;17.82;100.00
42591;BME280;28218;53.342;-6.216;2023-06-22T03:56:19;101916.75;;;17.84;100.00
42591;BME280;28218;53.342;-6.216;2023-06-22T03:58:48;101917.16;;;17.87;100.00
42591;BME280;28218;53.342;-6.216;2023-06-22T04:01:18;101923.34;;;17.88;100.00
42591;BME280;28218;53.342;-6.216;2023-06-22T04:03:46;101921.25;;;17.83;100.00
42591;BME280;28218;53.342;-6.216;2023-06-22T04:06:16;101920.38;;;17.83;100.00
42591;BME280;28218;53.342;-6.216;2023-06-22T04:08:45;101920.38;;;17.83;100.00
42591;BME280;28218;53.342;-6.216;2023-06-22T04:11:19;101920.38;;;17.83;100.00
42591;BME280;28218;53.342;-6.216;2023-06-22T04:13:47;101931.91;;;17.83;100.00
42591;BME280;28218;53.342;-6.216;2023-06-22T04:16:18;101932.91;;;17.82;100.00
42591;BME280;28218;53.342;-6.216;2023-06-22T04:18:46;101939.25;;;17.81;100.00
42591;BME280;28218;53.342;-6.216;2023-06-22T04:21:14;101940.28;;;17.80;100.00
42591;BME280;28218;53.342;-6.216;2023-06-22T04:23:43;101941.09;;;17.81;100.00
42591;BME280;28218;53.342;-6.216;2023-06-22T04:26:13;101943.28;;;17.77;100.00
42591;BME280;28218;53.342;-6.216;2023-06-22T04:28:43;101940.28;;;17.80;100.00
42591;BME280;28218;53.342;-6.216;2023-06-22T04:31:18;101945.41;;;17.82;100.00
42591;BME280;28218;53.342;-6.216;2023-06-22T04:33:46;101945.50;;;17.88;100.00
42591;BME280;28218;53.342;-6.216;2023-06-22T04:36:15;101945.78;;;17.94;100.00
42591;BME280;28218;53.342;-6.216;2023-06-22T04:38:43;101942.16;;;18.01;100.00
42591;BME280;28218;53.342;-6.216;2023-06-22T04:41:11;101943.44;;;18.05;100.00
42591;BME280;28218;53.342;-6.216;2023-06-22T04:43:52;101947.38;;;18.09;100.00
42591;BME280;28218;53.342;-6.216;2023-06-22T04:46:24;101950.88;;;18.10;100.00
42591;BME280;28218;53.342;-6.216;2023-06-22T04:48:52;101946.34;;;18.10;100.00
42591;BME280;28218;53.342;-6.216;2023-06-22T04:51:20;101953.44;;;18.18;100.00
42591;BME280;28218;53.342;-6.216;2023-06-22T04:53:49;101945.69;;;18.23;100.00
42591;BME280;28218;53.342;-6.216;2023-06-22T04:56:17;101942.66;;;18.26;100.00
42591;BME280;28218;53.342;-6.216;2023-06-22T04:58:48;101950.66;;;18.26;100.00
42591;BME280;28218;53.342;-6.216;2023-06-22T05:01:19;101956.16;;;18.25;100.00
42591;BME280;28218;53.342;-6.216;2023-06-22T05:03:48;101952.50;;;18.26;100.00
42591;BME280;28218;53.342;-6.216;2023-06-22T05:06:17;101948.41;;;18.30;100.00
42591;BME280;28218;53.342;-6.216;2023-06-22T05:08:45;101942.72;;;18.33;100.00
42591;BME280;28218;53.342;-6.216;2023-06-22T05:11:14;101945.19;;;18.34;100.00
42591;BME280;28218;53.342;-6.216;2023-06-22T05:13:42;101954.03;;;18.35;100.00
42591;BME280;28218;53.342;-6.216;2023-06-22T05:16:10;101955.75;;;18.43;100.00
42591;BME280;28218;53.342;-6.216;2023-06-22T05:18:40;101960.97;;;18.51;100.00
42591;BME280;28218;53.342;-6.216;2023-06-22T05:21:08;101968.03;;;18.58;100.00
42591;BME280;28218;53.342;-6.216;2023-06-22T05:23:37;101964.59;;;18.86;100.00
42591;BME280;28218;53.342;-6.216;2023-06-22T05:26:05;101963.50;;;19.30;100.00
42591;BME280;28218;53.342;-6.216;2023-06-22T05:28:36;101959.03;;;19.72;100.00
42591;BME280;28218;53.342;-6.216;2023-06-22T05:31:04;101959.19;;;20.11;100.00
42591;BME280;28218;53.342;-6.216;2023-06-22T05:33:32;101951.47;;;20.50;100.00
42591;BME280;28218;53.342;-6.216;2023-06-22T05:36:02;101949.84;;;20.88;100.00
42591;BME280;28218;53.342;-6.216;2023-06-22T05:38:31;101947.13;;;21.22;100.00
42591;BME280;28218;53.342;-6.216;2023-06-22T05:41:00;101940.31;;;21.52;100.00
42591;BME280;28218;53.342;-6.216;2023-06-22T05:43:28;101942.69;;;21.80;100.00
42591;BME280;28218;53.342;-6.216;2023-06-22T05:45:57;101939.53;;;21.90;100.00
42591;BME280;28218;53.342;-6.216;2023-06-22T05:48:25;101952.53;;;21.93;100.00
42591;BME280;28218;53.342;-6.216;2023-06-22T05:50:53;101943.66;;;21.92;100.00
42591;BME280;28218;53.342;-6.216;2023-06-22T05:53:23;101941.34;;;22.03;100.00
42591;BME280;28218;53.342;-6.216;2023-06-22T05:55:52;101938.38;;;22.11;100.00
42591;BME280;28218;53.342;-6.216;2023-06-22T05:58:20;101935.06;;;22.22;100.00
42591;BME280;28218;53.342;-6.216;2023-06-22T06:00:48;101940.13;;;22.37;100.00
42591;BME280;28218;53.342;-6.216;2023-06-22T06:03:16;101939.22;;;22.50;100.00
42591;BME280;28218;53.342;-6.216;2023-06-22T06:05:45;101944.66;;;22.68;100.00
42591;BME280;28218;53.342;-6.216;2023-06-22T06:08:13;101953.81;;;22.85;100.00
42591;BME280;28218;53.342;-6.216;2023-06-22T06:10:43;101955.00;;;22.96;100.00
42591;BME280;28218;53.342;-6.216;2023-06-22T06:13:11;101959.69;;;23.01;100.00
42591;BME280;28218;53.342;-6.216;2023-06-22T06:15:40;101958.06;;;23.00;100.00
42591;BME280;28218;53.342;-6.216;2023-06-22T06:18:08;101960.47;;;23.08;100.00
42591;BME280;28218;53.342;-6.216;2023-06-22T06:20:36;101954.81;;;23.16;100.00
42591;BME280;28218;53.342;-6.216;2023-06-22T06:23:04;101969.81;;;23.24;100.00
42591;BME280;28218;53.342;-6.216;2023-06-22T06:25:33;101966.03;;;23.31;100.00
42591;BME280;28218;53.342;-6.216;2023-06-22T06:28:03;101968.06;;;23.36;100.00
42591;BME280;28218;53.342;-6.216;2023-06-22T06:30:31;101968.88;;;23.36;100.00
42591;BME280;28218;53.342;-6.216;2023-06-22T06:33:00;101974.34;;;23.48;100.00
42591;BME280;28218;53.342;-6.216;2023-06-22T06:35:28;101970.59;;;23.49;100.00
42591;BME280;28218;53.342;-6.216;2023-06-22T06:37:57;101968.97;;;23.48;100.00
42591;BME280;28218;53.342;-6.216;2023-06-22T06:40:25;101971.69;;;23.23;100.00
42591;BME280;28218;53.342;-6.216;2023-06-22T06:42:54;101975.06;;;22.93;100.00
42591;BME280;28218;53.342;-6.216;2023-06-22T06:45:26;101975.88;;;22.94;100.00
42591;BME280;28218;53.342;-6.216;2023-06-22T06:47:55;101983.28;;;22.99;100.00
42591;BME280;28218;53.342;-6.216;2023-06-22T06:50:23;101982.41;;;23.05;100.00
42591;BME280;28218;53.342;-6.216;2023-06-22T06:52:52;101982.06;;;23.19;100.00
42591;BME280;28218;53.342;-6.216;2023-06-22T06:55:20;101982.75;;;23.15;100.00
42591;BME280;28218;53.342;-6.216;2023-06-22T06:57:51;101984.59;;;23.14;100.00
42591;BME280;28218;53.342;-6.216;2023-06-22T07:00:20;101987.28;;;23.14;100.00
42591;BME280;28218;53.342;-6.216;2023-06-22T07:02:50;101988.28;;;23.20;100.00
42591;BME280;28218;53.342;-6.216;2023-06-22T07:05:18;101992.69;;;23.33;100.00
42591;BME280;28218;53.342;-6.216;2023-06-22T07:07:47;101996.16;;;23.40;100.00
42591;BME280;28218;53.342;-6.216;2023-06-22T07:10:15;101994.59;;;23.51;100.00
42591;BME280;28218;53.342;-6.216;2023-06-22T07:12:44;101998.47;;;23.55;100.00
42591;BME280;28218;53.342;-6.216;2023-06-22T07:15:13;102001.41;;;23.53;100.00
42591;BME280;28218;53.342;-6.216;2023-06-22T07:17:41;101992.19;;;23.42;100.00
42591;BME280;28218;53.342;-6.216;2023-06-22T07:20:12;101999.44;;;23.42;100.00
42591;BME280;28218;53.342;-6.216;2023-06-22T07:22:42;101998.31;;;23.31;100.00
42591;BME280;28218;53.342;-6.216;2023-06-22T07:25:11;101998.13;;;23.26;100.00
42591;BME280;28218;53.342;-6.216;2023-06-22T07:27:46;101992.66;;;23.14;100.00
42591;BME280;28218;53.342;-6.216;2023-06-22T07:30:24;101996.66;;;23.05;100.00
42591;BME280;28218;53.342;-6.216;2023-06-22T07:32:53;102002.38;;;22.90;100.00
42591;BME280;28218;53.342;-6.216;2023-06-22T07:35:23;101999.38;;;22.74;100.00
42591;BME280;28218;53.342;-6.216;2023-06-22T07:37:51;102003.22;;;22.59;100.00
42591;BME280;28218;53.342;-6.216;2023-06-22T07:40:20;102004.34;;;22.38;100.00
42591;BME280;28218;53.342;-6.216;2023-06-22T07:42:48;102001.94;;;22.30;100.00
42591;BME280;28218;53.342;-6.216;2023-06-22T07:45:18;102009.38;;;22.28;100.00
42591;BME280;28218;53.342;-6.216;2023-06-22T07:47:47;102005.94;;;22.08;100.00
42591;BME280;28218;53.342;-6.216;2023-06-22T07:50:15;102015.91;;;21.87;100.00
42591;BME280;28218;53.342;-6.216;2023-06-22T07:52:45;102011.19;;;21.76;100.00
42591;BME280;28218;53.342;-6.216;2023-06-22T07:55:14;102013.50;;;21.66;100.00
42591;BME280;28218;53.342;-6.216;2023-06-22T07:57:42;102012.94;;;21.51;100.00
42591;BME280;28218;53.342;-6.216;2023-06-22T08:00:11;102012.09;;;21.43;100.00
42591;BME280;28218;53.342;-6.216;2023-06-22T08:02:44;102016.44;;;21.38;100.00
42591;BME280;28218;53.342;-6.216;2023-06-22T08:05:14;102017.69;;;21.22;100.00
42591;BME280;28218;53.342;-6.216;2023-06-22T08:07:49;102016.84;;;21.08;100.00
42591;BME280;28218;53.342;-6.216;2023-06-22T08:10:18;102012.94;;;21.04;100.00
42591;BME280;28218;53.342;-6.216;2023-06-22T08:12:47;102009.22;;;21.05;100.00
42591;BME280;28218;53.342;-6.216;2023-06-22T08:15:15;102013.72;;;20.98;100.00
42591;BME280;28218;53.342;-6.216;2023-06-22T08:17:44;102021.78;;;20.98;100.00
42591;BME280;28218;53.342;-6.216;2023-06-22T08:20:13;102021.56;;;20.93;100.00
42591;BME280;28218;53.342;-6.216;2023-06-22T08:22:42;102020.34;;;20.89;100.00
42591;BME280;28218;53.342;-6.216;2023-06-22T08:25:12;102015.00;;;20.89;100.00
42591;BME280;28218;53.342;-6.216;2023-06-22T08:27:44;102022.00;;;20.90;100.00
42591;BME280;28218;53.342;-6.216;2023-06-22T08:30:14;102015.78;;;20.83;100.00
42591;BME280;28218;53.342;-6.216;2023-06-22T08:32:42;102016.63;;;20.90;100.00
42591;BME280;28218;53.342;-6.216;2023-06-22T08:35:11;102015.38;;;20.92;100.00
42591;BME280;28218;53.342;-6.216;2023-06-22T08:37:41;102023.22;;;20.87;100.00
42591;BME280;28218;53.342;-6.216;2023-06-22T08:40:12;102018.69;;;20.81;100.00
42591;BME280;28218;53.342;-6.216;2023-06-22T08:42:41;102018.06;;;20.86;100.00
42591;BME280;28218;53.342;-6.216;2023-06-22T08:45:19;102019.91;;;20.92;100.00
42591;BME280;28218;53.342;-6.216;2023-06-22T08:47:47;102027.78;;;21.00;100.00
42591;BME280;28218;53.342;-6.216;2023-06-22T08:50:15;102034.16;;;20.99;100.00
42591;BME280;28218;53.342;-6.216;2023-06-22T08:52:44;102031.06;;;21.02;100.00
42591;BME280;28218;53.342;-6.216;2023-06-22T08:55:14;102024.47;;;21.05;100.00
42591;BME280;28218;53.342;-6.216;2023-06-22T08:57:42;102022.00;;;21.03;100.00
42591;BME280;28218;53.342;-6.216;2023-06-22T09:00:11;102027.38;;;21.03;100.00
42591;BME280;28218;53.342;-6.216;2023-06-22T09:02:44;102021.16;;;21.03;100.00
42591;BME280;28218;53.342;-6.216;2023-06-22T09:05:14;102033.34;;;21.05;100.00
42591;BME280;28218;53.342;-6.216;2023-06-22T09:07:43;102033.13;;;21.07;100.00
42591;BME280;28218;53.342;-6.216;2023-06-22T09:10:11;102029.00;;;21.11;100.00
42591;BME280;28218;53.342;-6.216;2023-06-22T09:12:44;102033.13;;;21.20;100.00
42591;BME280;28218;53.342;-6.216;2023-06-22T09:15:12;102042.19;;;21.26;100.00
42591;BME280;28218;53.342;-6.216;2023-06-22T09:17:44;102034.38;;;21.31;100.00
42591;BME280;28218;53.342;-6.216;2023-06-22T09:20:13;102039.56;;;21.32;100.00
42591;BME280;28218;53.342;-6.216;2023-06-22T09:22:42;102050.03;;;21.27;100.00
42591;BME280;28218;53.342;-6.216;2023-06-22T09:25:10;102042.84;;;21.34;100.00
42591;BME280;28218;53.342;-6.216;2023-06-22T09:27:40;102045.31;;;21.42;100.00
42591;BME280;28218;53.342;-6.216;2023-06-22T09:30:09;102050.66;;;21.49;100.00
42591;BME280;28218;53.342;-6.216;2023-06-22T09:32:37;102050.25;;;21.52;100.00
42591;BME280;28218;53.342;-6.216;2023-06-22T09:35:07;102055.41;;;21.60;100.00
42591;BME280;28218;53.342;-6.216;2023-06-22T09:37:36;102045.28;;;21.62;100.00
42591;BME280;28218;53.342;-6.216;2023-06-22T09:40:06;102049.00;;;21.61;100.00
42591;BME280;28218;53.342;-6.216;2023-06-22T09:42:38;102045.47;;;21.67;100.00
42591;BME280;28218;53.342;-6.216;2023-06-22T09:45:09;102046.72;;;21.72;100.00
42591;BME280;28218;53.342;-6.216;2023-06-22T09:47:37;102052.25;;;21.77;100.00
42591;BME280;28218;53.342;-6.216;2023-06-22T09:50:06;102059.06;;;21.73;100.00
42591;BME280;28218;53.342;-6.216;2023-06-22T09:52:35;102052.28;;;21.70;100.00
42591;BME280;28218;53.342;-6.216;2023-06-22T09:55:07;102052.28;;;21.70;100.00
42591;BME280;28218;53.342;-6.216;2023-06-22T09:57:35;102051.66;;;21.75;100.00
42591;BME280;28218;53.342;-6.216;2023-06-22T10:00:05;102050.00;;;21.74;100.00
42591;BME280;28218;53.342;-6.216;2023-06-22T10:02:40;102057.00;;;21.81;100.00
42591;BME280;28218;53.342;-6.216;2023-06-22T10:05:09;102052.44;;;21.82;100.00
42591;BME280;28218;53.342;-6.216;2023-06-22T10:07:38;102061.72;;;21.86;100.00
42591;BME280;28218;53.342;-6.216;2023-06-22T10:10:11;102061.94;;;21.91;100.00
42591;BME280;28218;53.342;-6.216;2023-06-22T10:12:42;102065.03;;;21.94;100.00
42591;BME280;28218;53.342;-6.216;2023-06-22T10:15:11;102070.16;;;21.96;100.00
42591;BME280;28218;53.342;-6.216;2023-06-22T10:17:41;102067.47;;;21.96;100.00
42591;BME280;28218;53.342;-6.216;2023-06-22T10:20:10;102069.38;;;21.89;100.00
42591;BME280;28218;53.342;-6.216;2023-06-22T10:22:42;102070.38;;;21.94;100.00
42591;BME280;28218;53.342;-6.216;2023-06-22T10:25:12;102069.75;;;22.12;100.00
42591;BME280;28218;53.342;-6.216;2023-06-22T10:27:40;102081.44;;;22.31;100.00
42591;BME280;28218;53.342;-6.216;2023-06-22T10:30:10;102076.50;;;22.28;100.00
42591;BME280;28218;53.342;-6.216;2023-06-22T10:32:42;102084.94;;;22.32;100.00
42591;BME280;28218;53.342;-6.216;2023-06-22T10:35:11;102077.69;;;22.39;100.00
42591;BME280;28218;53.342;-6.216;2023-06-22T10:37:52;102076.75;;;22.58;100.00
42591;BME280;28218;53.342;-6.216;2023-06-22T10:40:21;102080.00;;;22.67;100.00
42591;BME280;28218;53.342;-6.216;2023-06-22T10:42:49;102070.94;;;22.68;100.00
42591;BME280;28218;53.342;-6.216;2023-06-22T10:45:18;102081.88;;;22.66;100.00
42591;BME280;28218;53.342;-6.216;2023-06-22T10:47:47;102099.28;;;22.64;100.00
42591;BME280;28218;53.342;-6.216;2023-06-22T10:50:16;102082.13;;;22.58;100.00
42591;BME280;28218;53.342;-6.216;2023-06-22T10:52:44;102082.38;;;22.50;100.00
42591;BME280;28218;53.342;-6.216;2023-06-22T10:55:12;102079.91;;;22.49;100.00
42591;BME280;28218;53.342;-6.216;2023-06-22T10:57:40;102073.34;;;22.38;100.00
42591;BME280;28218;53.342;-6.216;2023-06-22T11:00:12;102079.72;;;22.43;100.00
42591;BME280;28218;53.342;-6.216;2023-06-22T11:02:41;102074.09;;;22.52;100.00
42591;BME280;28218;53.342;-6.216;2023-06-22T11:05:11;102073.66;;;22.61;100.00
42591;BME280;28218;53.342;-6.216;2023-06-22T11:07:41;102074.44;;;22.68;100.00
42591;BME280;28218;53.342;-6.216;2023-06-22T11:10:15;102081.06;;;22.66;100.00
42591;BME280;28218;53.342;-6.216;2023-06-22T11:12:43;102072.34;;;22.70;100.00
42591;BME280;28218;53.342;-6.216;2023-06-22T11:15:12;102074.44;;;22.68;100.00
42591;BME280;28218;53.342;-6.216;2023-06-22T11:17:40;102075.19;;;22.82;100.00
42591;BME280;28218;53.342;-6.216;2023-06-22T11:20:11;102063.53;;;22.95;100.00
42591;BME280;28218;53.342;-6.216;2023-06-22T11:22:40;102064.81;;;22.92;100.00
42591;BME280;28218;53.342;-6.216;2023-06-22T11:25:08;102067.59;;;23.04;100.00
42591;BME280;28218;53.342;-6.216;2023-06-22T11:27:38;102065.41;;;23.19;100.00
42591;BME280;28218;53.342;-6.216;2023-06-22T11:30:08;102072.44;;;23.20;100.00
42591;BME280;28218;53.342;-6.216;2023-06-22T11:32:36;102071.13;;;23.30;100.00
42591;BME280;28218;53.342;-6.216;2023-06-22T11:35:05;102075.84;;;23.34;100.00
42591;BME280;28218;53.342;-6.216;2023-06-22T11:37:35;102071.56;;;23.27;100.00
42591;BME280;28218;53.342;-6.216;2023-06-22T11:40:04;102068.09;;;23.19;100.00
42591;BME280;28218;53.342;-6.216;2023-06-22T11:42:35;102063.94;;;23.24;100.00
42591;BME280;28218;53.342;-6.216;2023-06-22T11:45:07;102063.22;;;23.35;100.00
42591;BME280;28218;53.342;-6.216;2023-06-22T11:47:36;102064.56;;;23.26;100.00
42591;BME280;28218;53.342;-6.216;2023-06-22T11:50:05;102060.00;;;23.26;100.00
42591;BME280;28218;53.342;-6.216;2023-06-22T11:52:35;102065.63;;;23.43;100.00
42591;BME280;28218;53.342;-6.216;2023-06-22T11:55:05;102073.03;;;23.47;100.00
42591;BME280;28218;53.342;-6.216;2023-06-22T11:57:35;102070.06;;;23.56;100.00
42591;BME280;28218;53.342;-6.216;2023-06-22T12:00:05;102073.38;;;23.58;100.00
42591;BME280;28218;53.342;-6.216;2023-06-22T12:02:43;102071.84;;;23.68;100.00
42591;BME280;28218;53.342;-6.216;2023-06-22T12:05:12;102067.44;;;23.74;100.00
42591;BME280;28218;53.342;-6.216;2023-06-22T12:07:42;102073.78;;;23.80;100.00
42591;BME280;28218;53.342;-6.216;2023-06-22T12:10:10;102087.63;;;23.58;100.00
42591;BME280;28218;53.342;-6.216;2023-06-22T12:12:40;102078.28;;;23.61;100.00
42591;BME280;28218;53.342;-6.216;2023-06-22T12:15:09;102071.16;;;23.73;100.00
42591;BME280;28218;53.342;-6.216;2023-06-22T12:17:38;102075.66;;;23.54;100.00
42591;BME280;28218;53.342;-6.216;2023-06-22T12:20:07;102079.19;;;23.55;100.00
42591;BME280;28218;53.342;-6.216;2023-06-22T12:22:36;102079.53;;;23.65;100.00
42591;BME280;28218;53.342;-6.216;2023-06-22T12:25:07;102071.34;;;23.53;100.00
42591;BME280;28218;53.342;-6.216;2023-06-22T12:27:36;102076.97;;;23.70;100.00
42591;BME280;28218;53.342;-6.216;2023-06-22T12:30:05;102077.13;;;23.75;100.00
42591;BME280;28218;53.342;-6.216;2023-06-22T12:32:34;102068.34;;;23.61;100.00
42591;BME280;28218;53.342;-6.216;2023-06-22T12:35:02;102083.91;;;23.59;100.00
42591;BME280;28218;53.342;-6.216;2023-06-22T12:37:31;102073.03;;;23.73;100.00
42591;BME280;28218;53.342;-6.216;2023-06-22T12:40:00;102082.09;;;23.78;100.00
42591;BME280;28218;53.342;-6.216;2023-06-22T12:42:31;102068.53;;;23.66;100.00